首页
METAR-TAF:

METAR-TAF

机场 :

普爾科沃機場

圣彼得堡, 俄罗斯

纬度: 59-58N, 经度: 030-18E, 海拔: 4米

当前天气观测

该预报发布于22分钟前的12:00 UTC
风速6节,风向北转西北,在西之间变化
温度 20°C
湿度 56%
气压 1028 hPa
能见度10公里或以上
散云层高于3300英尺

METAR: ULLI 251200Z 33003MPS 280V360 9999 SCT033 20/11 Q1028 R88/090060 NOSIG

时间: 15:22 (12:22 UTC)

预报

该预报发布于1小时和24分钟前的10:58 UTC
预报有效从25日的 12点(UTC)到 26日的 12点(UTC)
风速6节,风向西转西北
能见度10公里或以上
散云层高于2000英尺
短暂存在
从 25日的 15点(UTC)到 25日的 18点(UTC)
风速6节,风向北转西北
多云层高于2000英尺
从 25日的 2000点(UTC)
风速6节,风向西南
能見度: 3100
散云层高于1100英尺
轻雾
短暂存在
从 25日的 21点(UTC)到 26日的 03点(UTC)
能見度: 0300
散云层高于300英尺
成为
从 26日的 03点(UTC)到 26日的 04点(UTC)
风速6节,风向西转西南,有时为16节阵风
能见度10公里或以上
成为
从 26日的 09点(UTC)到 26日的 10点(UTC)
风速10节,风向西,有时为21节阵风

TAF: ULLI 251058Z 2512/2612 30003MPS 9999 SCT020 TEMPO 2515/2518 33003MPS BKN020 FM252000 22003MPS 3100 BR SCT011 TEMPO 2521/2603 0300 FG SCT003 BECMG 2603/2604 24003G08MPS 9999 NSW BECMG 2609/2610 26005G11MPS

超过4000个机场的气象观测和天气预报(METAR&TAF报告)。

可查询的气象台以黄色和红色小点在地图上表示。

将鼠标移到小点上方,可查看气象台名称。

然后点击查看天气观测和预报。

如需切换地图:点击带黑十字的绿色按钮放大地图;点击带横线的绿色按钮缩小地图;或者点击绿色箭头查看邻近地区的地图。


METAR-TAF: